Haydenville, OH (43127)

2:37 AM EDT on September 23, 2014 (GMT -0400)
Whitlind Woods | Change Station
CLOSE
Current Station
Personal Weather Station
Location: Athens, OH
Elevation: 713 ft
Nearby Weather Stations

Elev 713 ft 39.31 °N, 82.16 °W | Updated 45 seconds ago

Clear
Clear
39.9 °F
Feels Like 40 °F
N
0.0
Wind Variable Wind from SE
Gusts 0.0 mph

Today
High -- | Low -- °F
--% Chance of Precip.
Yesterday
High -- | Low -- °F
Precip. -- in
7:17 AM 7:24 PM
Waning Crescent, 1% visible
Pressure 30.30 in
Visibility 10.0 miles
Clouds Clear
Windchill 40 °F
Dew Point 39 °F
Humidity 95%
Rainfall 0.00 in
Snow Depth Not available.
UV 0 out of 12
Pollen 3.50 out of 12
Air Quality Not available.
Flu Activity Not available.
METAR KUNI 230615Z AUTO 00000KT 10SM CLR 05/04 A3030 RMK AO2 T00450035

More Conditions Fewer Conditions

Pressure 30.30 in
Visibility 10.0 miles
Clouds Clear
Windchill 40 °F
Dew Point 39 °F
Humidity 95%
Rainfall 0.00 in
Snow Depth Not available.
UV 0 out of 12
Pollen 3.50 out of 12
Air Quality Not available.
Flu Activity Not available.
METAR KUNI 230615Z AUTO 00000KT 10SM CLR 05/04 A3030 RMK AO2 T00450035

More Conditions Fewer Conditions

10-Day Weather Forecast

Almanac

Astronomy

Sep. 23, 2014 Rise Set
Actual Time 7:17 AM EDT 7:24 PM EDT
Civil Twilight 6:51 AM EDT 7:51 PM EDT
Nautical Twilight 6:19 AM EDT 8:22 PM EDT
Astronomical Twilight 5:47 AM EDT 8:54 PM EDT
Moon 6:41 AM EDT 7:03 PM EDT
Length of Visible Light 13h 00m
Length of Day
12h 06m
Tomorrow will be 2m 34s shorter.
Waning Crescent, 1% of the Moon is Illuminated
Today
Waning Crescent
Sep 24
New
Oct 1
First Quarter
Oct 8
Full
Oct 15
Last Quarter

Today's Extremes

State Highs State Lows

Community

WunderPhotos

Upload Photos

1,755,608 photos uploaded!

Nearby

Snow Depth

Station Depth Elevation
No new snow has been reported.

Earthquake Activity

City Distance Mag. Time & Date
No recent earthquake activity has been reported nearby.
Minimum magnitude displayed is 2.5.

Coastal Water Temperatures

Place Temperature
No Stations Reporting

Nearby Weather Stations